Skip to main content.
Our real time weather data display below is updated continuously via our 24/7 live data feed.
 TIME   TEMPERATURE   WINDSPEED   DIRECTION   HUMIDITY   BAROMETER   RAINFALL 
6:05 28.8°C (83.8°F) 5.6 kmh (3.5 mph) SSW 79% 1012.1hPa (29.89 inHg) 0.0mm (0.00 in.)
5:05 29.1°C (84.4 °F) 11.1 kmh (6.9 mph) SSW 75% 1011.8hPa (29.88 inHg) 0.0mm (0.00 in.)
4:05 30.4°C (86.7 °F) 14.8 kmh (9.2 mph) SW 67% 1012.1hPa (29.89 inHg) 0.0mm (0.00 in.)
3:05 31.9°C (89.4 °F) 14.8 kmh (9.2 mph) SSW 54% 1012.2hPa (29.89 inHg) 0.0mm (0.00 in.)
2:05 33.7°C (92.7 °F) 11.1 kmh (6.9 mph) SE 46% 1012.9hPa (29.91 inHg) 0.0mm (0.00 in.)
1:05 33.6°C (92.5 °F) 1.9 kmh (1.2 mph) E 35% 1013.4hPa (29.93 inHg) 0.0mm (0.00 in.)
12:05 31.8°C (89.2 °F) 13.0 kmh (8.1 mph) ENE 46% 1013.5hPa (29.93 inHg) 0.0mm (0.00 in.)
11:05 30.9°C (87.6 °F) 1.9 kmh (1.2 mph) ENE 52% 1013.8hPa (29.94 inHg) 0.0mm (0.00 in.)
10:05 30.1°C (86.2 °F) 7.4 kmh (4.6 mph) E 58% 1013.3hPa (29.92 inHg) 0.0mm (0.00 in.)
9:05 28.1°C (82.6 °F) 13.0 kmh (8.1 mph) ESE 73% 1013.0hPa (29.91 inHg) 0.0mm (0.00 in.)
8:05 26.8°C (80.2 °F) 5.6 kmh (3.5 mph) ESE 82% 1012.6hPa (29.90 inHg) 0.0mm (0.00 in.)
7:05 25.5°C (77.9 °F) 0.0 kmh (0.0 mph) E 86% 1012.2hPa (29.89 inHg) 0.0mm (0.00 in.)
6:05 24.8°C (76.6 °F) 0.0 kmh (0.0 mph) E 86% 1011.7hPa (29.88 inHg) 0.0mm (0.00 in.)
5:05 24.8°C (76.6 °F) 0.0 kmh (0.0 mph) E 87% 1011.4hPa (29.87 inHg) 0.0mm (0.00 in.)
4:05 24.7°C (76.5 °F) 5.6 kmh (3.5 mph) SE 92% 1011.0hPa (29.85 inHg) 0.0mm (0.00 in.)
3:05 25.0°C (77.0 °F) 1.9 kmh (1.2 mph) SSW 93% 1011.3hPa (29.86 inHg) 0.0mm (0.00 in.)
2:05 25.3°C (77.5 °F) 0.0 kmh (0.0 mph) SSW 92% 1011.7hPa (29.88 inHg) 0.0mm (0.00 in.)
1:05 25.4°C (77.7 °F) 0.0 kmh (0.0 mph) W 91% 1011.8hPa (29.88 inHg) 0.0mm (0.00 in.)
12:05 25.6°C (78.1 °F) 0.0 kmh (0.0 mph) W 91% 1011.5hPa (29.87 inHg) 0.0mm (0.00 in.)
11:05 25.8°C (78.4 °F) 0.0 kmh (0.0 mph) W 89% 1011.3hPa (29.86 inHg) 0.0mm (0.00 in.)
10:05 26.0°C (78.8 °F) 11.1 kmh (6.9 mph) NNW 89% 1011.4hPa (29.87 inHg) 0.0mm (0.00 in.)
9:05 25.8°C (78.4 °F) 1.9 kmh (1.2 mph) NNW 91% 1011.1hPa (29.86 inHg) 0.0mm (0.00 in.)
8:05 26.0°C (78.8 °F) 14.8 kmh (9.2 mph) NNW 90% 1010.8hPa (29.85 inHg) 0.0mm (0.00 in.)
7:05 26.4°C (79.5 °F) 11.1 kmh (6.9 mph) N 90% 1010.7hPa (29.85 inHg) 0.0mm (0.00 in.)